CheckWX is a tool to help pilots better visualize weather data.  It is not intended as a substitute for an official pre-flight weather briefing.

04:39:24 UTC

KFMN TAF
Four Corners Regional Airport
Farmington, New Mexico, USA
KFMN 222327Z 2300/2324 29016G24KT P6SM VCSH BKN060 FM230300 30007KT P6SM BKN060 FM231100 07005KT P6SM FEW040 FM231800 28010KT P6SM SCT100

Mar-23@
00:00 UTC

Mar-23 @ 00:00 UTC

Mar-23@
03:00 UTC

Mar-23 @ 03:00 UTC

KFMN 222327Z 2300/2324 29016G24KT P6SM VCSH BKN060

Expired

Wind
  • 290° at 16 KTS
  • {Gusting to 24 KTS
Cloud Levels
  • Broken at 6,000' AGL

Mar-23@
03:00 UTC

Mar-23 @ 03:00 UTC

Mar-23@
11:00 UTC

Mar-23 @ 11:00 UTC

FM230300 30007KT P6SM BKN060

From

From Standard forecast or significant change

Wind
  • 300° at 7 KTS
Cloud Levels
  • Broken at 6,000' AGL

Mar-23@
11:00 UTC

Mar-23 @ 11:00 UTC

Mar-23@
18:00 UTC

Mar-23 @ 18:00 UTC

FM231100 07005KT P6SM FEW040

From

From Standard forecast or significant change

Wind
  • 070° at 5 KTS
Cloud Levels
  • Few at 4,000' AGL

Mar-23@
18:00 UTC

Mar-23 @ 18:00 UTC

Mar-24@
00:00 UTC

Mar-24 @ 00:00 UTC

FM231800 28010KT P6SM SCT100

From

From Standard forecast or significant change

Wind
  • 280° at 10 KTS
Cloud Levels
  • Scattered at 10,000' AGL